Time;durP1;ratioP1;P1;durP2;ratioP2;P2;SDS_P1;SDS_P2;PMS_P1;PMS_P2;Temp;Humidity;BMP_temperature;BMP_pressure;BME280_temperature;BME280_humidity;BME280_pressure;Samples;Min_cycle;Max_cycle;Signal;HPM_P1;HPM_P2
2021/12/10 00:00:31;;;;;;;80.27;33.83;;;;;;;3.67;73.27;99602.56;5052054;28;20223;-73
2021/12/10 00:02:57;;;;;;;82.30;33.87;;;;;;;2.97;74.64;99581.84;5053299;28;20167;-72
2021/12/10 00:05:28;;;;;;;73.67;32.63;;;;;;;3.50;73.67;99589.25;5053367;28;20172;-72
2021/12/10 00:07:55;;;;;;;78.37;33.07;;;;;;;3.09;74.38;99586.63;5051764;28;20447;-72
2021/12/10 00:10:24;;;;;;;76.63;33.43;;;;;;;3.25;74.82;99605.28;5051855;28;20602;-72
2021/12/10 00:12:51;;;;;;;83.47;33.07;;;;;;;3.19;74.09;99581.81;5052013;28;20194;-73
2021/12/10 00:15:23;;;;;;;76.77;32.60;;;;;;;3.50;73.48;99584.00;5035277;28;20420;-72
2021/12/10 00:17:49;;;;;;;84.33;34.57;;;;;;;3.53;73.51;99584.72;5051794;28;20212;-72
2021/12/10 00:20:16;;;;;;;84.13;34.27;;;;;;;3.58;73.99;99585.34;5036096;28;20774;-72
2021/12/10 00:22:51;;;;;;;77.90;33.00;;;;;;;3.78;72.79;99584.50;5052267;28;20168;-72
2021/12/10 00:25:19;;;;;;;90.23;34.70;;;;;;;3.67;72.67;99568.25;5052098;28;20170;-72
2021/12/10 00:27:47;;;;;;;76.93;33.73;;;;;;;3.45;73.05;99552.53;5052991;28;20688;-72
2021/12/10 00:30:24;;;;;;;86.10;33.83;;;;;;;3.81;72.98;99576.44;5051773;28;20431;-71
2021/12/10 00:33:03;;;;;;;87.67;34.50;;;;;;;3.75;72.66;99556.47;5053289;28;20166;-72
2021/12/10 00:35:31;;;;;;;85.03;35.03;;;;;;;3.46;73.47;99554.25;5051994;28;20188;-73
2021/12/10 00:37:57;;;;;;;81.20;33.07;;;;;;;3.47;74.14;99561.25;5052916;28;20702;-72
2021/12/10 00:40:23;;;;;;;87.93;35.17;;;;;;;3.81;72.68;99565.88;5051639;28;20464;-72
2021/12/10 00:42:49;;;;;;;82.30;33.93;;;;;;;2.99;73.65;99520.25;5052810;28;20179;-72
2021/12/10 00:45:16;;;;;;;86.67;34.70;;;;;;;3.54;73.88;99552.13;5051425;28;20914;-73
2021/12/10 00:47:42;;;;;;;92.23;36.30;;;;;;;3.69;73.15;99543.50;5051795;28;20198;-72
2021/12/10 00:50:12;;;;;;;94.47;37.40;;;;;;;3.69;73.19;99527.69;5054300;28;20467;-72
2021/12/10 00:52:37;;;;;;;90.23;34.70;;;;;;;3.65;73.07;99525.25;5055632;28;20171;-73
2021/12/10 00:55:04;;;;;;;89.57;36.43;;;;;;;3.72;72.61;99530.22;5053204;28;20424;-72
2021/12/10 00:57:30;;;;;;;88.30;36.07;;;;;;;3.81;72.56;99520.16;5052989;28;20640;-72
2021/12/10 00:59:55;;;;;;;94.50;38.33;;;;;;;3.85;72.34;99522.56;5051682;28;20429;-71
2021/12/10 01:02:23;;;;;;;98.63;37.63;;;;;;;3.43;73.53;99523.59;5051597;28;20179;-72
2021/12/10 01:04:54;;;;;;;101.17;38.53;;;;;;;3.27;74.22;99526.94;5034533;28;20184;-71
2021/12/10 01:07:33;;;;;;;99.13;39.93;;;;;;;3.73;73.82;99544.25;5051261;28;20196;-71
2021/12/10 01:10:15;;;;;;;94.57;36.90;;;;;;;3.69;73.39;99535.59;5052610;28;20389;-71
2021/12/10 01:12:44;;;;;;;106.33;39.50;;;;;;;3.43;73.79;99513.03;5051802;28;20521;-71
2021/12/10 01:23:47;;;;;;;103.17;39.43;;;;;;;3.78;73.11;99522.94;5056430;28;20168;-72
2021/12/10 01:23:57;;;;;;;100.80;39.20;;;;;;;3.99;71.85;99495.53;5056261;28;20650;-72
2021/12/10 01:27:14;;;;;;;105.23;41.20;;;;;;;4.06;72.49;99504.84;5056164;28;20282;-71
2021/12/10 01:29:31;;;;;;;101.63;39.03;;;;;;;3.87;72.63;99506.66;5049324;28;20183;-71
2021/12/10 01:31:58;;;;;;;103.90;40.23;;;;;;;3.63;72.74;99492.81;5037812;28;20464;-72
2021/12/10 01:34:24;;;;;;;99.77;39.47;;;;;;;3.55;73.71;99500.22;5055845;28;20433;-70
2021/12/10 01:36:49;;;;;;;98.07;37.37;;;;;;;3.22;74.09;99494.66;5056123;28;20409;-72
2021/12/10 01:39:18;;;;;;;95.37;37.27;;;;;;;3.09;75.23;99496.97;5054429;28;20207;-71
2021/12/10 01:41:53;;;;;;;103.63;38.20;;;;;;;2.92;75.48;99499.47;5055455;28;20209;-71
2021/12/10 01:44:27;;;;;;;99.60;37.33;;;;;;;3.09;75.51;99499.63;5054659;28;20441;-72
2021/12/10 01:46:52;;;;;;;96.97;37.67;;;;;;;2.88;75.42;99492.63;5055632;28;20445;-72
2021/12/10 01:49:18;;;;;;;98.93;36.57;;;;;;;3.11;75.57;99495.13;5054236;28;20188;-71
2021/12/10 01:51:45;;;;;;;93.53;35.63;;;;;;;2.91;75.65;99476.69;5055347;28;20617;-72
2021/12/10 01:54:23;;;;;;;97.50;37.23;;;;;;;3.07;75.14;99480.38;5037487;28;20176;-72
2021/12/10 01:56:50;;;;;;;91.13;36.67;;;;;;;3.09;76.04;99494.34;5055262;28;20404;-72
2021/12/10 01:59:17;;;;;;;96.57;36.67;;;;;;;3.03;75.84;99476.16;5054367;28;20502;-72
2021/12/10 02:01:46;;;;;;;102.77;38.13;;;;;;;3.16;75.11;99458.03;5053824;28;20812;-73
2021/12/10 02:04:15;;;;;;;98.13;37.97;;;;;;;3.43;74.57;99469.97;5053965;28;20421;-73
2021/12/10 02:06:40;;;;;;;101.90;40.10;;;;;;;2.90;75.54;99448.59;5054178;28;20455;-73
2021/12/10 02:09:07;;;;;;;91.93;39.03;;;;;;;3.18;75.58;99467.56;5054260;28;20421;-73
2021/12/10 02:11:32;;;;;;;100.70;37.93;;;;;;;2.99;75.74;99443.81;5037287;28;20204;-72
2021/12/10 02:13:58;;;;;;;96.57;39.37;;;;;;;3.17;75.30;99442.13;5037130;28;20434;-72
2021/12/10 02:16:23;;;;;;;99.33;38.77;;;;;;;3.43;74.54;99430.41;5055211;28;20645;-73
2021/12/10 02:18:49;;;;;;;105.80;37.73;;;;;;;3.39;74.26;99445.53;5054858;28;20183;-72
2021/12/10 02:21:19;;;;;;;97.13;39.03;;;;;;;2.82;76.29;99452.44;5053545;28;20704;-72
2021/12/10 02:23:57;;;;;;;99.33;39.27;;;;;;;3.50;75.62;99454.72;5054890;28;20189;-72
2021/12/10 02:26:25;;;;;;;93.40;38.57;;;;;;;3.57;74.29;99435.91;5053464;28;20559;-72
2021/12/10 02:28:51;;;;;;;95.23;38.10;;;;;;;3.56;73.80;99415.72;5054594;28;20421;-72
2021/12/10 02:31:17;;;;;;;94.30;38.17;;;;;;;3.35;73.81;99399.13;5054527;28;20441;-71
2021/12/10 02:33:42;;;;;;;95.27;36.83;;;;;;;3.28;73.97;99402.94;5053639;28;20624;-71
2021/12/10 02:36:11;;;;;;;91.97;38.00;;;;;;;3.46;73.98;99409.16;5054414;28;20176;-72
2021/12/10 02:38:47;;;;;;;94.00;38.00;;;;;;;3.28;74.92;99418.75;5037042;28;20176;-72
2021/12/10 02:41:15;;;;;;;94.37;38.37;;;;;;;3.40;74.40;99412.94;5054369;28;20481;-72
2021/12/10 02:43:40;;;;;;;88.33;36.60;;;;;;;3.55;73.95;99397.31;5053178;28;20466;-71
2021/12/10 02:46:06;;;;;;;88.93;38.23;;;;;;;3.40;73.62;99391.84;5054283;28;20172;-71
2021/12/10 02:48:32;;;;;;;90.87;38.03;;;;;;;3.57;73.59;99384.91;5054785;28;20179;-71
2021/12/10 02:50:58;;;;;;;95.80;37.50;;;;;;;3.64;73.58;99387.19;5036221;28;20735;-71
2021/12/10 02:53:27;;;;;;;88.73;36.40;;;;;;;3.67;73.11;99367.72;5053497;28;20171;-71
2021/12/10 02:55:55;;;;;;;93.60;38.73;;;;;;;3.81;72.71;99370.56;5053021;28;20405;-72
2021/12/10 02:58:21;;;;;;;99.93;38.80;;;;;;;3.76;72.98;99369.94;5052895;28;20163;-72
2021/12/10 03:00:56;;;;;;;97.27;39.67;;;;;;;3.48;73.13;99361.63;5052977;28;20761;-71
2021/12/10 03:03:21;;;;;;;86.97;37.90;;;;;;;3.52;73.23;99357.91;5053155;28;20217;-72
2021/12/10 03:05:46;;;;;;;95.37;37.83;;;;;;;2.95;73.73;99347.31;5052860;28;20174;-72
2021/12/10 03:08:12;;;;;;;84.60;35.77;;;;;;;3.30;73.73;99365.94;5052855;28;20195;-71
2021/12/10 03:10:38;;;;;;;83.63;35.60;;;;;;;3.49;73.73;99376.50;5053067;28;20690;-72
2021/12/10 03:13:05;;;;;;;93.87;37.33;;;;;;;3.70;72.82;99362.28;5052792;28;20171;-73
2021/12/10 03:15:31;;;;;;;85.07;38.60;;;;;;;3.69;73.18;99350.03;5036511;28;20318;-72
2021/12/10 03:17:57;;;;;;;91.63;38.30;;;;;;;3.91;72.32;99355.13;5054669;28;20253;-72
2021/12/10 03:20:25;;;;;;;91.07;37.93;;;;;;;3.80;72.32;99353.03;5052846;28;20234;-72
2021/12/10 03:22:50;;;;;;;88.53;37.30;;;;;;;3.77;72.35;99339.97;5053167;28;20257;-72
2021/12/10 03:25:17;;;;;;;92.10;38.73;;;;;;;3.67;72.90;99349.25;5053919;28;20563;-70
2021/12/10 03:27:43;;;;;;;91.53;37.80;;;;;;;3.56;72.92;99338.34;5052262;28;20200;-71
2021/12/10 03:30:15;;;;;;;84.73;38.33;;;;;;;3.68;73.32;99348.31;5053765;28;20539;-71
2021/12/10 03:32:40;;;;;;;89.37;37.77;;;;;;;3.34;73.74;99333.22;5035832;28;20177;-70
2021/12/10 03:35:14;;;;;;;93.70;37.77;;;;;;;3.20;74.33;99347.06;5053704;28;20420;-71
2021/12/10 03:37:41;;;;;;;96.53;38.87;;;;;;;3.47;73.63;99341.44;5051965;28;20159;-71
2021/12/10 03:40:08;;;;;;;86.77;38.03;;;;;;;3.52;73.73;99353.47;5052497;28;20190;-71
2021/12/10 03:42:34;;;;;;;89.43;37.67;;;;;;;3.54;73.33;99340.22;5053552;28;20187;-72
2021/12/10 03:44:59;;;;;;;86.87;35.87;;;;;;;3.16;74.01;99328.84;5052126;28;20823;-72
2021/12/10 03:47:24;;;;;;;92.63;38.70;;;;;;;3.23;74.02;99336.38;5053202;28;20544;-72
2021/12/10 03:49:50;;;;;;;93.03;38.23;;;;;;;3.53;73.58;99326.16;5052172;28;20167;-72
2021/12/10 03:52:15;;;;;;;88.43;38.60;;;;;;;3.66;73.05;99323.78;5051972;28;20669;-70
2021/12/10 03:54:41;;;;;;;106.13;41.70;;;;;;;3.08;74.50;99324.78;5051973;28;20203;-71
2021/12/10 03:57:07;;;;;;;99.27;39.80;;;;;;;3.35;74.45;99340.25;5035143;28;20179;-72
2021/12/10 03:59:36;;;;;;;97.30;38.53;;;;;;;3.65;73.55;99309.75;5053151;28;20214;-73
2021/12/10 04:02:03;;;;;;;95.73;38.37;;;;;;;3.43;73.75;99309.94;5051783;28;20191;-70
2021/12/10 04:04:35;;;;;;;96.37;41.40;;;;;;;3.75;73.44;99294.34;5053112;28;20914;-72
2021/12/10 04:07:04;;;;;;;94.67;39.30;;;;;;;3.46;72.96;99279.91;5054174;28;20800;-71
2021/12/10 04:09:29;;;;;;;92.20;38.83;;;;;;;3.55;73.04;99294.44;5055632;28;20947;-71
2021/12/10 04:11:55;;;;;;;98.50;41.03;;;;;;;3.60;72.93;99287.16;5055998;28;20456;-72
2021/12/10 04:14:21;;;;;;;87.57;38.30;;;;;;;3.31;73.66;99296.47;5051955;28;20167;-72
2021/12/10 04:16:53;;;;;;;98.10;40.03;;;;;;;3.01;74.54;99296.13;5053167;28;20164;-72
2021/12/10 04:19:19;;;;;;;97.47;39.23;;;;;;;3.19;74.48;99286.50;5053428;28;20156;-71
2021/12/10 04:21:44;;;;;;;103.87;41.30;;;;;;;3.26;74.58;99299.31;5051811;28;20225;-72
2021/12/10 04:24:13;;;;;;;102.57;40.47;;;;;;;3.36;74.34;99308.53;5051854;28;20187;-71
2021/12/10 04:26:38;;;;;;;101.03;39.57;;;;;;;3.41;73.94;99306.53;5051619;28;20199;-72
2021/12/10 04:29:05;;;;;;;98.23;40.23;;;;;;;3.07;74.91;99320.44;5052700;28;20781;-70
2021/12/10 04:31:30;;;;;;;98.17;39.37;;;;;;;3.49;73.71;99315.84;5034759;28;20241;-71
2021/12/10 04:33:55;;;;;;;103.03;43.07;;;;;;;3.10;74.20;99298.34;5051612;28;20176;-72
2021/12/10 04:36:21;;;;;;;102.07;41.87;;;;;;;3.23;74.21;99304.75;5051485;28;20174;-71
2021/12/10 04:38:47;;;;;;;108.30;42.00;;;;;;;3.04;74.52;99303.91;5052004;28;20171;-71
2021/12/10 04:41:12;;;;;;;101.60;42.97;;;;;;;3.28;73.96;99307.16;5051447;28;20194;-71
2021/12/10 04:43:39;;;;;;;103.50;39.87;;;;;;;3.27;74.48;99311.56;5051486;28;20176;-71
2021/12/10 04:46:05;;;;;;;108.83;41.97;;;;;;;3.30;73.68;99289.47;5034664;28;20210;-71
2021/12/10 04:48:42;;;;;;;96.70;40.83;;;;;;;3.74;73.46;99306.69;5052834;28;20850;-72
2021/12/10 04:51:07;;;;;;;101.53;43.17;;;;;;;3.46;72.49;99274.66;5055399;28;20195;-71
2021/12/10 04:53:33;;;;;;;101.20;41.70;;;;;;;3.42;73.61;99297.69;5055379;28;20411;-71
2021/12/10 04:55:58;;;;;;;101.60;41.20;;;;;;;3.39;73.76;99297.81;5054934;28;20216;-71
2021/12/10 04:58:24;;;;;;;101.07;41.93;;;;;;;3.70;73.00;99283.97;5057125;28;20209;-71
2021/12/10 05:00:50;;;;;;;90.83;38.87;;;;;;;3.75;72.29;99303.09;5056158;28;20571;-71
2021/12/10 05:03:16;;;;;;;93.87;43.23;;;;;;;3.60;73.15;99297.69;5056340;28;20167;-71
2021/12/10 05:05:43;;;;;;;100.33;40.57;;;;;;;3.82;72.65;99301.00;5054946;28;20164;-70
2021/12/10 05:08:09;;;;;;;100.90;40.43;;;;;;;3.48;73.28;99293.03;5038230;28;20199;-72
2021/12/10 05:10:35;;;;;;;97.00;41.57;;;;;;;3.72;72.58;99281.28;5054962;28;20426;-72
2021/12/10 05:13:00;;;;;;;96.17;42.27;;;;;;;3.78;72.46;99273.06;5054996;28;20186;-71
2021/12/10 05:15:28;;;;;;;105.10;44.30;;;;;;;2.83;74.25;99274.09;5054682;28;20566;-71
2021/12/10 05:17:54;;;;;;;92.90;39.70;;;;;;;3.05;73.67;99274.84;5055890;28;20669;-71
2021/12/10 05:20:24;;;;;;;101.03;40.93;;;;;;;2.69;74.12;99266.84;5054983;28;20444;-71
2021/12/10 05:22:51;;;;;;;101.13;41.23;;;;;;;3.20;74.34;99290.84;5055455;28;20160;-72
2021/12/10 05:25:17;;;;;;;96.83;42.13;;;;;;;3.18;74.47;99296.19;5057213;28;20415;-71
2021/12/10 05:27:42;;;;;;;102.87;41.37;;;;;;;3.14;74.49;99273.53;5056070;28;20456;-71
2021/12/10 05:30:11;;;;;;;96.83;41.03;;;;;;;2.96;75.12;99298.09;5055266;28;20420;-70
2021/12/10 05:32:37;;;;;;;94.37;41.53;;;;;;;3.02;74.67;99258.31;5054945;28;20215;-70
2021/12/10 05:35:03;;;;;;;102.37;42.83;;;;;;;3.33;74.82;99307.78;5054929;28;20464;-71
2021/12/10 05:37:29;;;;;;;102.37;41.73;;;;;;;3.40;74.63;99281.06;5054890;28;20253;-71
2021/12/10 05:39:54;;;;;;;109.07;43.93;;;;;;;3.37;74.19;99270.69;5056188;28;20408;-72
2021/12/10 05:42:19;;;;;;;98.37;43.10;;;;;;;3.30;74.63;99287.69;5056044;28;20535;-71
2021/12/10 05:44:45;;;;;;;105.20;43.70;;;;;;;3.36;74.37;99282.16;5056149;28;20182;-70
2021/12/10 05:47:10;;;;;;;108.80;42.37;;;;;;;3.39;74.19;99270.59;5054103;28;20195;-71
2021/12/10 05:49:35;;;;;;;100.93;43.37;;;;;;;2.96;75.52;99277.88;5055857;28;20225;-72
2021/12/10 05:52:02;;;;;;;104.73;44.60;;;;;;;3.49;74.79;99268.38;5054277;28;20563;-71
2021/12/10 05:54:28;;;;;;;99.60;41.70;;;;;;;3.37;73.89;99243.44;5054075;28;20179;-71
2021/12/10 05:56:53;;;;;;;104.33;41.90;;;;;;;3.51;73.74;99245.41;5054183;28;20411;-72
2021/12/10 05:59:18;;;;;;;102.07;41.80;;;;;;;3.59;73.52;99244.09;5054721;28;20178;-72
2021/12/10 06:01:44;;;;;;;97.47;43.13;;;;;;;3.60;73.63;99239.66;5056991;28;20709;-72
2021/12/10 06:04:09;;;;;;;100.60;44.43;;;;;;;3.58;73.84;99238.88;5059991;28;20183;-72
2021/12/10 06:06:35;;;;;;;103.07;42.53;;;;;;;3.63;73.54;99235.09;5054409;28;20198;-72
2021/12/10 06:09:04;;;;;;;108.73;43.23;;;;;;;3.43;74.52;99244.00;5038071;28;20174;-71
2021/12/10 06:11:29;;;;;;;103.20;42.93;;;;;;;3.39;74.22;99236.31;5054257;28;20230;-72
2021/12/10 06:13:56;;;;;;;101.10;46.13;;;;;;;3.34;74.29;99240.94;5053840;28;20892;-72
2021/12/10 06:16:21;;;;;;;97.17;42.27;;;;;;;3.22;75.09;99244.16;5054091;28;20167;-73
2021/12/10 06:18:47;;;;;;;114.10;46.20;;;;;;;3.16;75.46;99241.84;5054322;28;20527;-72
2021/12/10 06:21:12;;;;;;;116.83;47.60;;;;;;;3.22;75.70;99245.03;5078101;22;20234;-74
2021/12/10 06:23:38;;;;;;;103.63;44.77;;;;;;;3.16;76.30;99257.66;5054684;28;20177;-74
2021/12/10 06:26:04;;;;;;;118.00;46.13;;;;;;;2.94;75.88;99232.28;5056268;28;20184;-72
2021/12/10 06:28:33;;;;;;;115.77;47.13;;;;;;;3.21;76.29;99272.31;5054105;28;20829;-72
2021/12/10 06:30:59;;;;;;;116.17;46.40;;;;;;;2.96;76.93;99266.47;5054437;28;20572;-73
2021/12/10 06:33:27;;;;;;;106.27;43.20;;;;;;;3.08;76.58;99258.03;5054443;28;20186;-72
2021/12/10 06:35:55;;;;;;;111.10;45.30;;;;;;;3.10;76.06;99235.06;5055415;28;20175;-72
2021/12/10 06:38:22;;;;;;;116.33;46.17;;;;;;;3.28;75.47;99228.91;5054364;28;20168;-72
2021/12/10 06:40:48;;;;;;;116.50;45.60;;;;;;;2.79;76.73;99244.41;5037482;28;20249;-73
2021/12/10 06:43:14;;;;;;;111.23;44.43;;;;;;;3.04;76.37;99245.91;5054438;28;20207;-71
2021/12/10 06:45:40;;;;;;;119.03;47.00;;;;;;;2.97;76.87;99271.69;5053983;28;20180;-73
2021/12/10 06:48:08;;;;;;;124.77;47.90;;;;;;;3.29;76.44;99248.22;5054037;28;20588;-73
2021/12/10 06:50:36;;;;;;;113.57;46.00;;;;;;;3.34;75.96;99225.97;5037796;28;20737;-74
2021/12/10 06:53:01;;;;;;;116.10;47.13;;;;;;;3.28;75.48;99205.16;5054039;28;20183;-73
2021/12/10 06:55:28;;;;;;;111.17;45.77;;;;;;;3.42;75.34;99215.91;5054342;28;20176;-73
2021/12/10 06:57:54;;;;;;;113.97;47.17;;;;;;;3.16;75.43;99210.19;5038160;28;20175;-73
2021/12/10 07:00:23;;;;;;;115.07;46.67;;;;;;;3.10;75.49;99192.91;5053999;28;20183;-73
2021/12/10 07:02:49;;;;;;;104.83;44.97;;;;;;;3.09;75.80;99220.19;5054631;28;20203;-73
2021/12/10 07:05:15;;;;;;;113.50;47.07;;;;;;;2.73;77.29;99247.34;5038227;28;20186;-73
2021/12/10 07:07:40;;;;;;;117.27;46.50;;;;;;;2.91;76.37;99221.03;5038133;28;20206;-72
2021/12/10 07:10:07;;;;;;;111.07;46.73;;;;;;;2.88;76.98;99234.38;5055213;28;20258;-74
2021/12/10 07:12:38;;;;;;;110.93;45.57;;;;;;;3.10;76.65;99241.19;5039895;28;20199;-74
2021/12/10 07:15:06;;;;;;;104.33;44.23;;;;;;;3.34;75.85;99220.69;5057788;28;20178;-74
2021/12/10 07:17:32;;;;;;;112.00;44.80;;;;;;;3.05;75.55;99179.94;5058171;28;20172;-74
2021/12/10 07:19:59;;;;;;;110.90;46.37;;;;;;;2.81;77.21;99234.66;5058878;28;20175;-74
2021/12/10 07:22:24;;;;;;;104.90;43.00;;;;;;;2.89;76.27;99212.34;5075923;28;20206;-73
2021/12/10 07:24:49;;;;;;;112.50;45.03;;;;;;;2.61;77.49;99229.47;5074921;28;20175;-73
2021/12/10 07:27:14;;;;;;;103.63;42.80;;;;;;;2.81;77.20;99225.91;5075486;28;20192;-74
2021/12/10 07:29:40;;;;;;;99.07;42.20;;;;;;;2.28;78.04;99231.84;5074007;28;20175;-74
2021/12/10 07:32:06;;;;;;;108.07;43.13;;;;;;;2.78;78.05;99241.84;5053220;28;20282;-74
2021/12/10 07:34:31;;;;;;;106.40;42.97;;;;;;;3.03;76.58;99218.69;5073669;28;20197;-74
2021/12/10 07:36:57;;;;;;;107.53;43.33;;;;;;;3.14;75.98;99207.63;5075354;28;20184;-73
2021/12/10 07:39:22;;;;;;;105.83;43.90;;;;;;;3.02;75.93;99200.31;5073933;28;20639;-74
2021/12/10 07:41:47;;;;;;;106.17;44.50;;;;;;;2.78;76.32;99192.66;5070768;28;20191;-74
2021/12/10 07:44:13;;;;;;;98.60;43.57;;;;;;;2.85;76.88;99232.72;5057991;28;20156;-74
2021/12/10 07:46:40;;;;;;;100.07;44.70;;;;;;;2.40;78.22;99249.72;5072312;28;20206;-73
2021/12/10 07:49:13;;;;;;;108.07;44.60;;;;;;;2.45;77.84;99231.06;5052869;28;20588;-73
2021/12/10 07:51:38;;;;;;;109.37;45.07;;;;;;;3.02;76.58;99231.97;5037295;28;20214;-73
2021/12/10 07:54:04;;;;;;;114.37;46.03;;;;;;;3.02;76.44;99218.78;5053346;28;20182;-73
2021/12/10 07:56:30;;;;;;;109.87;43.10;;;;;;;2.86;76.23;99213.34;5052907;28;20177;-74
2021/12/10 07:58:56;;;;;;;105.20;44.30;;;;;;;3.00;76.70;99218.00;5036421;28;20184;-74
2021/12/10 08:01:26;;;;;;;107.47;44.57;;;;;;;3.38;75.45;99221.41;5036185;28;20231;-76
2021/12/10 08:03:52;;;;;;;113.03;44.83;;;;;;;3.18;75.89;99209.19;5037345;28;20186;-74
2021/12/10 08:06:20;;;;;;;112.50;46.07;;;;;;;2.45;78.35;99237.19;5052906;28;20178;-72
2021/12/10 08:08:46;;;;;;;113.13;45.73;;;;;;;2.84;77.59;99231.03;5053947;28;20182;-73
2021/12/10 08:11:12;;;;;;;124.13;49.17;;;;;;;3.08;76.49;99185.06;5056143;28;20191;-73
2021/12/10 08:13:37;;;;;;;118.60;47.50;;;;;;;3.01;75.86;99188.06;5040026;28;20203;-73
2021/12/10 08:16:03;;;;;;;111.03;44.90;;;;;;;2.72;76.55;99192.94;5044049;28;20525;-73
2021/12/10 08:18:28;;;;;;;105.63;44.27;;;;;;;2.27;77.38;99190.66;5039217;28;20199;-73
2021/12/10 08:20:54;;;;;;;113.33;47.07;;;;;;;2.49;77.67;99195.78;5057765;28;20199;-73
2021/12/10 08:23:19;;;;;;;112.70;44.57;;;;;;;3.14;76.36;99189.19;5039229;28;20708;-71
2021/12/10 08:25:46;;;;;;;106.23;43.33;;;;;;;3.20;75.44;99191.50;5041103;28;20167;-72
2021/12/10 08:28:11;;;;;;;106.37;44.60;;;;;;;2.66;77.37;99201.13;5056380;28;20580;-72
2021/12/10 08:30:38;;;;;;;102.30;42.83;;;;;;;2.83;76.31;99172.19;5056545;28;20194;-73
2021/12/10 08:33:11;;;;;;;109.10;43.67;;;;;;;3.20;75.73;99180.97;5039465;28;20182;-73
2021/12/10 08:35:36;;;;;;;108.67;45.10;;;;;;;2.48;76.92;99165.09;5040327;28;20181;-72
2021/12/10 08:38:02;;;;;;;109.47;43.93;;;;;;;2.93;76.70;99172.59;5056109;28;20695;-72
2021/12/10 08:40:36;;;;;;;97.33;41.77;;;;;;;3.01;76.07;99173.13;5055896;28;20183;-72
2021/12/10 08:43:04;;;;;;;106.20;43.67;;;;;;;3.07;76.05;99167.53;5055934;28;20171;-72
2021/12/10 08:45:29;;;;;;;105.13;42.30;;;;;;;2.92;76.02;99164.78;5039407;28;20211;-72
2021/12/10 08:47:55;;;;;;;98.33;42.37;;;;;;;3.14;76.04;99171.56;5056019;28;20198;-74
2021/12/10 08:50:23;;;;;;;92.93;41.47;;;;;;;3.03;75.04;99146.69;5055799;28;20482;-74
2021/12/10 08:53:01;;;;;;;107.43;44.20;;;;;;;3.08;75.67;99168.41;5039447;28;20727;-75
2021/12/10 08:55:28;;;;;;;106.77;45.10;;;;;;;3.23;75.75;99172.91;5056417;28;20159;-74
2021/12/10 08:57:53;;;;;;;101.67;41.07;;;;;;;2.33;77.06;99169.31;5055732;28;20167;-74
2021/12/10 09:00:20;;;;;;;110.23;46.03;;;;;;;2.67;77.31;99180.91;5056524;28;20202;-73
2021/12/10 09:02:46;;;;;;;104.57;45.47;;;;;;;2.93;76.75;99158.56;5056205;28;20163;-74
2021/12/10 09:05:11;;;;;;;109.57;46.63;;;;;;;3.30;75.46;99147.09;5055442;28;20176;-75
2021/12/10 09:07:38;;;;;;;112.73;45.33;;;;;;;3.12;75.89;99143.59;5055560;28;20203;-72
2021/12/10 09:10:08;;;;;;;119.37;47.93;;;;;;;3.73;74.38;99130.81;5056201;28;20247;-73
2021/12/10 09:12:34;;;;;;;108.83;45.13;;;;;;;3.68;73.30;99121.38;5056059;28;20674;-74
2021/12/10 09:15:01;;;;;;;110.83;46.40;;;;;;;4.18;73.24;99144.28;5038646;28;20175;-73
2021/12/10 09:17:29;;;;;;;111.27;47.93;;;;;;;3.96;73.73;99142.78;5056116;28;20168;-74
2021/12/10 09:19:56;;;;;;;104.83;45.20;;;;;;;4.17;72.56;99137.31;5039183;28;20188;-73
2021/12/10 09:22:23;;;;;;;99.53;44.57;;;;;;;4.29;72.54;99139.28;5038927;28;20215;-74
2021/12/10 09:24:49;;;;;;;109.20;46.00;;;;;;;4.27;72.57;99135.88;5055077;28;20648;-72
2021/12/10 09:27:14;;;;;;;102.97;45.07;;;;;;;3.79;72.27;99113.78;5038769;28;20199;-73
2021/12/10 09:29:42;;;;;;;103.80;46.60;;;;;;;3.90;73.88;99161.59;5056832;28;20172;-73
2021/12/10 09:32:10;;;;;;;97.63;43.23;;;;;;;3.61;73.06;99122.66;5055222;28;20219;-74
2021/12/10 09:34:36;;;;;;;108.30;43.87;;;;;;;3.19;75.41;99138.84;5053982;28;20171;-72
2021/12/10 09:37:02;;;;;;;107.73;47.27;;;;;;;3.45;75.70;99131.34;5038139;28;20179;-73
2021/12/10 09:39:29;;;;;;;107.47;44.23;;;;;;;3.91;74.44;99133.41;5038353;28;20211;-73
2021/12/10 09:41:54;;;;;;;105.47;45.13;;;;;;;3.46;74.50;99126.94;5054772;28;20319;-73
2021/12/10 09:44:21;;;;;;;106.93;45.70;;;;;;;3.89;74.77;99146.69;5057724;28;20176;-73
2021/12/10 09:46:47;;;;;;;104.63;45.27;;;;;;;4.04;73.09;99116.81;5039810;28;20663;-75
2021/12/10 09:49:13;;;;;;;101.70;44.77;;;;;;;4.08;73.00;99115.72;5057025;28;20176;-73
2021/12/10 09:51:44;;;;;;;107.10;44.90;;;;;;;4.20;72.47;99113.38;5039988;28;20282;-73
2021/12/10 09:54:13;;;;;;;110.63;47.07;;;;;;;4.00;73.92;99117.91;5039534;28;20178;-72
2021/12/10 09:56:40;;;;;;;97.73;42.43;;;;;;;4.21;73.13;99129.13;5040090;28;20195;-72
2021/12/10 09:59:05;;;;;;;100.13;44.73;;;;;;;4.28;72.80;99104.09;5056787;28;20547;-72
2021/12/10 10:01:39;;;;;;;102.23;44.30;;;;;;;3.78;73.50;99106.81;5056178;28;20268;-74
2021/12/10 10:04:05;;;;;;;106.37;44.87;;;;;;;4.09;74.01;99119.25;5056050;28;20162;-73
2021/12/10 10:06:37;;;;;;;104.87;45.93;;;;;;;4.02;74.31;99128.41;5056507;28;20176;-74
2021/12/10 10:09:04;;;;;;;96.33;42.83;;;;;;;3.51;74.51;99101.16;5055584;28;20175;-74
2021/12/10 10:11:32;;;;;;;105.67;44.17;;;;;;;4.16;73.36;99111.84;5055121;28;20671;-74
2021/12/10 10:13:58;;;;;;;111.57;46.87;;;;;;;3.76;74.44;99104.25;5038806;28;20505;-74
2021/12/10 10:16:25;;;;;;;101.23;43.73;;;;;;;3.61;74.38;99098.91;5038562;28;20230;-72
2021/12/10 10:18:51;;;;;;;104.63;44.57;;;;;;;3.20;75.74;99104.50;5054949;28;20180;-73
2021/12/10 10:21:38;;;;;;;106.47;44.33;;;;;;;3.42;76.41;99113.06;5058101;28;20218;-73
2021/12/10 10:24:04;;;;;;;100.67;42.37;;;;;;;3.30;76.60;99120.72;5057745;28;20182;-73
2021/12/10 10:26:33;;;;;;;103.37;45.10;;;;;;;3.63;75.63;99123.41;5057601;28;20639;-73
2021/12/10 10:29:06;;;;;;;104.00;43.13;;;;;;;3.27;75.72;99095.34;5072163;28;20168;-71
2021/12/10 10:31:32;;;;;;;106.33;42.93;;;;;;;3.19;76.86;99102.81;5050765;28;20198;-71
2021/12/10 10:33:59;;;;;;;102.13;44.37;;;;;;;3.51;76.56;99113.50;5055226;28;20179;-72
2021/12/10 10:36:27;;;;;;;106.63;46.10;;;;;;;3.99;75.09;99103.00;5054084;28;20225;-72
2021/12/10 10:38:59;;;;;;;101.70;44.30;;;;;;;4.43;73.45;99089.19;5054134;28;20636;-73
2021/12/10 10:41:31;;;;;;;94.33;44.20;;;;;;;4.18;74.14;99083.56;5054252;28;20201;-72
2021/12/10 10:43:56;;;;;;;95.03;42.33;;;;;;;3.58;75.32;99088.50;5037813;28;20206;-73
2021/12/10 10:46:21;;;;;;;91.37;41.97;;;;;;;4.04;74.51;99085.13;5052658;28;20175;-73
2021/12/10 10:48:48;;;;;;;98.60;44.50;;;;;;;4.14;73.70;99082.03;5037145;28;20733;-71
2021/12/10 10:51:17;;;;;;;108.30;46.67;;;;;;;4.48;74.89;99110.94;5038880;28;20195;-73
2021/12/10 10:53:47;;;;;;;102.83;45.47;;;;;;;4.50;73.84;99098.50;5054058;28;20175;-72
2021/12/10 10:56:29;;;;;;;96.83;42.00;;;;;;;4.59;73.61;99086.56;5053930;28;20179;-73
2021/12/10 10:58:59;;;;;;;100.30;44.60;;;;;;;4.37;73.01;99074.53;5037212;28;20646;-74
2021/12/10 11:01:35;;;;;;;89.40;40.83;;;;;;;3.86;74.36;99065.03;5037827;28;20197;-73
2021/12/10 11:04:04;;;;;;;98.70;43.07;;;;;;;4.12;75.27;99105.88;5054355;28;20631;-73
2021/12/10 11:06:34;;;;;;;94.77;42.23;;;;;;;4.32;74.11;99070.44;5055065;28;20590;-73
2021/12/10 11:09:25;;;;;;;90.23;43.50;;;;;;;4.47;74.46;99101.31;5055163;28;20254;-72
2021/12/10 11:11:55;;;;;;;100.27;44.10;;;;;;;4.57;75.27;99120.13;5036868;28;20545;-72
2021/12/10 11:14:32;;;;;;;91.80;43.07;;;;;;;4.23;74.47;99082.38;5037401;28;20528;-73
2021/12/10 11:17:15;;;;;;;95.33;44.47;;;;;;;4.33;73.42;99064.22;5054076;28;20158;-72
2021/12/10 11:19:48;;;;;;;96.47;43.90;;;;;;;4.59;73.11;99071.56;5053470;28;20164;-70
2021/12/10 11:22:15;;;;;;;95.87;42.03;;;;;;;4.52;73.13;99083.41;5053511;28;20227;-72
2021/12/10 11:24:55;;;;;;;93.97;43.03;;;;;;;4.83;73.70;99092.22;5036552;28;20262;-69
2021/12/10 11:27:26;;;;;;;87.07;41.50;;;;;;;4.72;72.80;99085.75;5054081;28;20218;-74
2021/12/10 11:30:02;;;;;;;100.77;43.30;;;;;;;4.29;73.53;99081.19;5054376;28;20176;-72